createdAt,value
2019-02-15T00:02:28.291Z,15.20
2019-02-15T00:04:56.647Z,16.03
2019-02-15T00:07:24.973Z,14.33
2019-02-15T00:09:53.403Z,15.75
2019-02-15T00:12:21.771Z,15.63
2019-02-15T00:14:50.106Z,14.73
2019-02-15T00:17:22.125Z,14.77
2019-02-15T00:19:52.474Z,15.17
2019-02-15T00:22:20.805Z,14.47
2019-02-15T00:24:49.183Z,13.60
2019-02-15T00:27:17.517Z,13.90
2019-02-15T00:29:45.906Z,14.13
2019-02-15T00:32:14.396Z,14.00
2019-02-15T00:34:42.717Z,13.93
2019-02-15T00:37:11.625Z,12.67
2019-02-15T00:39:39.972Z,13.30
2019-02-15T00:42:08.748Z,12.70
2019-02-15T00:44:37.628Z,12.65
2019-02-15T00:47:10.020Z,12.33
2019-02-15T00:49:40.319Z,11.70
2019-02-15T00:52:11.053Z,12.63
2019-02-15T00:54:43.249Z,12.03
2019-02-15T00:57:16.226Z,11.67
2019-02-15T00:59:47.193Z,10.93
2019-02-15T01:02:18.080Z,11.83
2019-02-15T01:04:49.946Z,11.53
2019-02-15T01:07:19.712Z,10.95
2019-02-15T01:09:50.817Z,11.73
2019-02-15T01:12:21.910Z,11.07
2019-02-15T01:14:50.299Z,10.40
2019-02-15T01:17:18.650Z,9.98
2019-02-15T01:19:47.053Z,11.00
2019-02-15T01:22:15.476Z,10.03
2019-02-15T01:24:43.840Z,9.73
2019-02-15T01:27:15.078Z,9.80
2019-02-15T01:29:48.075Z,8.80
2019-02-15T01:32:19.175Z,9.77
2019-02-15T01:34:50.233Z,9.20
2019-02-15T01:37:18.550Z,10.33
2019-02-15T01:39:50.535Z,10.90
2019-02-15T01:42:20.111Z,10.20
2019-02-15T01:44:50.872Z,9.17
2019-02-15T01:47:19.578Z,10.25
2019-02-15T01:49:48.075Z,10.40
2019-02-15T01:52:16.463Z,11.20
2019-02-15T01:54:44.830Z,10.85
2019-02-15T01:57:13.375Z,10.80
2019-02-15T01:59:41.878Z,10.93
2019-02-15T02:02:10.615Z,11.40
2019-02-15T02:04:39.712Z,10.20
2019-02-15T02:07:08.073Z,10.80
2019-02-15T02:09:36.412Z,9.53
2019-02-15T02:12:05.328Z,10.50
2019-02-15T02:14:33.664Z,10.20
2019-02-15T02:17:02.173Z,10.27
2019-02-15T02:19:30.520Z,11.67
2019-02-15T02:21:59.040Z,10.40
2019-02-15T02:24:27.366Z,12.00
2019-02-15T02:26:55.718Z,11.03
2019-02-15T02:29:24.064Z,10.67
2019-02-15T02:31:52.410Z,11.47
2019-02-15T02:34:20.809Z,10.63
2019-02-15T02:36:50.683Z,11.10
2019-02-15T02:39:19.075Z,10.60
2019-02-15T02:41:47.479Z,12.13
2019-02-15T02:44:15.911Z,12.47
2019-02-15T02:46:44.306Z,11.03
2019-02-15T02:49:12.924Z,11.30
2019-02-15T02:51:41.819Z,11.08
2019-02-15T02:54:10.323Z,11.33
2019-02-15T02:56:38.655Z,10.67
2019-02-15T02:59:07.029Z,11.88
2019-02-15T03:01:35.449Z,11.43
2019-02-15T03:04:03.981Z,12.20
2019-02-15T03:06:32.310Z,11.13
2019-02-15T03:09:00.656Z,11.48
2019-02-15T03:11:29.075Z,11.53
2019-02-15T03:13:57.424Z,11.50
2019-02-15T03:16:25.782Z,10.28
2019-02-15T03:18:54.107Z,11.40
2019-02-15T03:21:22.451Z,10.93
2019-02-15T03:23:50.826Z,10.93
2019-02-15T03:26:19.259Z,11.47
2019-02-15T03:28:47.619Z,11.17
2019-02-15T03:31:15.964Z,10.20
2019-02-15T03:33:44.342Z,11.10
2019-02-15T03:36:15.707Z,11.27
2019-02-15T03:38:47.879Z,10.13
2019-02-15T03:41:18.881Z,12.50
2019-02-15T03:43:47.226Z,10.73
2019-02-15T03:46:15.586Z,10.93
2019-02-15T03:48:43.919Z,11.20
2019-02-15T03:51:12.819Z,10.48
2019-02-15T03:53:41.150Z,11.27
2019-02-15T03:56:09.899Z,10.07
2019-02-15T03:58:38.342Z,10.70
2019-02-15T04:01:06.800Z,10.80
2019-02-15T04:03:35.190Z,11.80
2019-02-15T04:06:03.680Z,11.67
2019-02-15T04:08:32.151Z,10.23
2019-02-15T04:11:00.491Z,11.53
2019-02-15T04:13:28.958Z,10.60
2019-02-15T04:15:57.316Z,10.77
2019-02-15T04:18:25.671Z,10.72
2019-02-15T04:20:54.026Z,10.25
2019-02-15T04:23:22.370Z,11.63
2019-02-15T04:25:50.710Z,10.00
2019-02-15T04:28:19.106Z,9.53
2019-02-15T04:30:47.450Z,9.73
2019-02-15T04:33:15.793Z,10.40
2019-02-15T04:35:44.176Z,9.90
2019-02-15T04:38:12.812Z,10.70
2019-02-15T04:40:41.165Z,10.13
2019-02-15T04:43:09.717Z,9.07
2019-02-15T04:45:38.074Z,9.63
2019-02-15T04:48:06.433Z,9.60
2019-02-15T04:50:34.753Z,9.33
2019-02-15T04:53:03.310Z,9.70
2019-02-15T04:55:31.721Z,8.07
2019-02-15T04:58:00.070Z,9.37
2019-02-15T05:00:28.406Z,9.20
2019-02-15T05:02:57.559Z,9.95
2019-02-15T05:05:25.955Z,9.80
2019-02-15T05:07:54.384Z,10.08
2019-02-15T05:10:22.744Z,11.40
2019-02-15T05:12:51.105Z,11.10
2019-02-15T05:15:19.536Z,10.83
2019-02-15T05:17:48.005Z,12.43
2019-02-15T05:20:16.335Z,10.83
2019-02-15T05:22:44.700Z,11.27
2019-02-15T05:25:13.528Z,10.10
2019-02-15T05:27:41.875Z,9.23
2019-02-15T05:30:10.645Z,10.03
2019-02-15T05:32:38.994Z,10.40
2019-02-15T05:35:07.457Z,9.95
2019-02-15T05:40:40.958Z,9.40
2019-02-15T05:43:09.572Z,10.23
2019-02-15T05:45:37.909Z,9.80
2019-02-15T05:48:06.743Z,8.83
2019-02-15T05:50:35.093Z,8.30
2019-02-15T05:53:03.537Z,9.67
2019-02-15T05:55:31.880Z,10.38
2019-02-15T05:58:00.210Z,9.50
2019-02-15T06:00:36.729Z,10.08
2019-02-15T06:02:58.897Z,10.60
2019-02-15T06:05:28.002Z,10.68
2019-02-15T06:07:56.329Z,9.77
2019-02-15T06:10:25.392Z,9.00
2019-02-15T06:12:53.713Z,9.90
2019-02-15T06:15:22.058Z,9.03
2019-02-15T06:17:50.434Z,9.67
2019-02-15T06:20:18.786Z,9.70
2019-02-15T06:22:47.177Z,8.73
2019-02-15T06:25:15.518Z,9.30
2019-02-15T06:27:43.845Z,8.93
2019-02-15T06:30:12.198Z,8.43
2019-02-15T06:32:40.622Z,9.43
2019-02-15T06:35:09.793Z,10.07
2019-02-15T06:37:38.134Z,9.30
2019-02-15T06:40:07.711Z,9.55
2019-02-15T06:42:36.047Z,9.47
2019-02-15T06:45:06.016Z,10.10
2019-02-15T06:47:34.351Z,9.13
2019-02-15T06:50:02.724Z,8.60
2019-02-15T06:52:31.057Z,9.20
2019-02-15T06:54:59.389Z,9.83
2019-02-15T06:57:27.756Z,8.20
2019-02-15T06:59:59.851Z,8.23
2019-02-15T07:02:31.056Z,8.80
2019-02-15T07:05:02.184Z,8.10
2019-02-15T07:07:30.545Z,7.80
2019-02-15T07:09:58.866Z,7.50
2019-02-15T07:12:27.249Z,7.92
2019-02-15T07:14:55.582Z,7.43
2019-02-15T07:17:23.921Z,8.13
2019-02-15T07:19:52.284Z,8.03
2019-02-15T07:22:20.600Z,7.50
2019-02-15T07:24:48.991Z,8.80
2019-02-15T07:27:17.326Z,11.10
2019-02-15T07:29:45.658Z,7.77
2019-02-15T07:32:13.983Z,8.03
2019-02-15T07:34:42.350Z,8.60
2019-02-15T07:37:10.703Z,9.13
2019-02-15T07:39:39.030Z,7.63
2019-02-15T07:42:07.609Z,8.93
2019-02-15T07:44:35.944Z,8.60
2019-02-15T07:47:04.269Z,9.40
2019-02-15T07:49:32.635Z,8.83
2019-02-15T07:52:01.831Z,8.75
2019-02-15T07:54:30.261Z,8.23
2019-02-15T07:56:58.593Z,9.15
2019-02-15T07:59:26.943Z,8.37
2019-02-15T08:02:01.592Z,7.93
2019-02-15T08:04:25.675Z,8.48
2019-02-15T08:06:54.029Z,9.60
2019-02-15T08:09:22.816Z,9.03
2019-02-15T08:11:51.149Z,8.87
2019-02-15T08:14:19.469Z,9.07
2019-02-15T08:16:47.836Z,8.87
2019-02-15T08:19:16.135Z,9.00
2019-02-15T08:21:44.475Z,8.63
2019-02-15T08:24:12.800Z,9.43
2019-02-15T08:26:41.227Z,9.40
2019-02-15T08:29:09.550Z,8.80
2019-02-15T08:31:37.911Z,10.13
2019-02-15T08:34:06.474Z,9.53
2019-02-15T08:36:34.800Z,10.93
2019-02-15T08:39:05.119Z,9.47
2019-02-15T08:41:33.470Z,9.73
2019-02-15T08:44:02.187Z,10.20
2019-02-15T08:46:30.558Z,10.40
2019-02-15T08:48:58.880Z,9.13
2019-02-15T08:51:27.211Z,9.80
2019-02-15T08:53:55.560Z,9.33
2019-02-15T08:56:23.874Z,9.43
2019-02-15T08:58:52.226Z,8.90
2019-02-15T09:01:20.568Z,9.37
2019-02-15T09:03:48.934Z,8.00
2019-02-15T09:06:17.256Z,9.30
2019-02-15T09:08:45.599Z,8.00
2019-02-15T09:11:13.935Z,8.80
2019-02-15T09:13:42.279Z,8.90
2019-02-15T09:16:10.804Z,8.33
2019-02-15T09:18:39.234Z,7.80
2019-02-15T09:21:07.879Z,8.90
2019-02-15T09:23:36.219Z,8.40
2019-02-15T09:26:04.621Z,8.70
2019-02-15T09:28:35.617Z,8.57
2019-02-15T09:31:04.005Z,8.50
2019-02-15T09:33:32.453Z,9.47
2019-02-15T09:36:00.780Z,9.80
2019-02-15T09:38:29.115Z,9.17
2019-02-15T09:40:57.674Z,9.27
2019-02-15T09:43:26.001Z,9.40
2019-02-15T09:45:54.449Z,9.00
2019-02-15T09:48:22.761Z,8.65
2019-02-15T09:50:51.255Z,9.13
2019-02-15T09:53:20.627Z,8.63
2019-02-15T09:55:48.990Z,8.60
2019-02-15T09:58:17.335Z,8.47
2019-02-15T10:00:45.664Z,8.20
2019-02-15T10:03:13.988Z,8.60
2019-02-15T10:05:42.348Z,8.17
2019-02-15T10:08:10.701Z,9.30
2019-02-15T10:10:39.027Z,9.20
2019-02-15T10:13:07.699Z,8.70
2019-02-15T10:15:36.047Z,8.50
2019-02-15T10:18:04.658Z,8.97
2019-02-15T10:20:32.966Z,9.90
2019-02-15T10:23:01.451Z,9.85
2019-02-15T10:25:29.804Z,10.55
2019-02-15T10:27:58.224Z,10.07
2019-02-15T10:30:26.656Z,9.70
2019-02-15T10:32:54.990Z,9.23
2019-02-15T10:35:23.333Z,9.40
2019-02-15T10:37:51.725Z,9.70
2019-02-15T10:40:20.036Z,9.27
2019-02-15T10:42:48.389Z,9.78
2019-02-15T10:45:16.669Z,9.17
2019-02-15T10:47:45.052Z,9.20
2019-02-15T10:50:13.535Z,9.83
2019-02-15T10:52:41.933Z,9.50
2019-02-15T10:55:10.930Z,9.80
2019-02-15T10:57:39.270Z,9.40
2019-02-15T11:00:13.620Z,11.00
2019-02-15T11:02:42.010Z,10.50
2019-02-15T11:05:11.174Z,9.77
2019-02-15T11:07:39.511Z,9.63
2019-02-15T11:10:09.312Z,10.33
2019-02-15T11:12:37.773Z,10.10
2019-02-15T11:15:09.970Z,9.58
2019-02-15T11:17:38.316Z,10.18
2019-02-15T11:20:10.404Z,11.47
2019-02-15T11:22:38.761Z,11.23
2019-02-15T11:25:09.685Z,10.20
2019-02-15T11:27:38.030Z,10.50
2019-02-15T11:30:10.435Z,10.97
2019-02-15T11:32:38.783Z,10.97
2019-02-15T11:35:10.121Z,10.83
2019-02-15T11:37:38.462Z,10.50
2019-02-15T11:40:09.798Z,9.77
2019-02-15T11:42:38.114Z,10.58
2019-02-15T11:45:10.341Z,10.23
2019-02-15T11:47:38.841Z,11.33
2019-02-15T11:50:10.541Z,10.45
2019-02-15T11:52:38.940Z,11.30
2019-02-15T11:55:09.787Z,9.67
2019-02-15T11:57:38.101Z,9.80
2019-02-15T12:00:14.136Z,10.23
2019-02-15T12:02:39.947Z,10.63
2019-02-15T12:05:09.638Z,10.77
2019-02-15T12:07:38.034Z,11.57
2019-02-15T12:10:09.576Z,14.50
2019-02-15T12:12:37.950Z,9.40
2019-02-15T12:15:09.409Z,9.10
2019-02-15T12:17:37.744Z,8.23
2019-02-15T12:20:10.099Z,9.53
2019-02-15T12:22:38.427Z,9.30
2019-02-15T12:25:07.854Z,8.87
2019-02-15T12:27:36.184Z,8.03
2019-02-15T12:30:09.412Z,9.40
2019-02-15T12:32:37.749Z,8.78
2019-02-15T12:35:08.280Z,9.87
2019-02-15T12:37:36.690Z,8.50
2019-02-15T12:40:07.405Z,9.47
2019-02-15T12:42:35.731Z,8.90
2019-02-15T12:45:06.978Z,8.40
2019-02-15T12:47:35.309Z,8.63
2019-02-15T12:50:07.688Z,7.67
2019-02-15T12:52:36.007Z,7.60
2019-02-15T12:55:04.397Z,8.10
2019-02-15T12:57:32.764Z,8.10
2019-02-15T13:00:01.084Z,7.33
2019-02-15T13:02:29.425Z,8.50
2019-02-15T13:04:58.205Z,7.00
2019-02-15T13:07:26.563Z,7.20
2019-02-15T13:09:54.904Z,7.37
2019-02-15T13:12:23.236Z,8.13
2019-02-15T13:14:51.578Z,7.00
2019-02-15T13:17:24.788Z,7.10
2019-02-15T13:19:50.250Z,7.50
2019-02-15T13:22:20.167Z,7.63
2019-02-15T13:24:49.591Z,7.37
2019-02-15T13:27:17.936Z,7.17
2019-02-15T13:29:46.315Z,6.70
2019-02-15T13:32:14.670Z,7.53
2019-02-15T13:34:43.113Z,5.93
2019-02-15T13:37:11.490Z,5.70
2019-02-15T13:39:39.804Z,5.97
2019-02-15T13:42:08.481Z,5.10
2019-02-15T13:44:36.911Z,6.60
2019-02-15T13:47:05.248Z,5.35
2019-02-15T13:49:33.676Z,4.97
2019-02-15T13:52:02.077Z,5.47
2019-02-15T13:54:30.429Z,5.10
2019-02-15T13:56:58.745Z,6.50
2019-02-15T13:59:27.093Z,4.17
2019-02-15T14:01:55.419Z,4.60
2019-02-15T14:04:23.841Z,5.05
2019-02-15T14:06:53.923Z,4.53
2019-02-15T14:09:22.409Z,4.30
2019-02-15T14:11:50.778Z,4.70
2019-02-15T14:14:19.159Z,4.87
2019-02-15T14:16:47.572Z,4.20
2019-02-15T14:19:15.908Z,5.30
2019-02-15T14:21:44.775Z,5.40
2019-02-15T14:24:13.285Z,4.67
2019-02-15T14:26:41.624Z,6.03
2019-02-15T14:29:10.014Z,5.77
2019-02-15T14:31:38.414Z,5.20
2019-02-15T14:34:07.073Z,5.10
2019-02-15T14:36:35.413Z,5.20
2019-02-15T14:39:06.687Z,4.80
2019-02-15T14:41:34.980Z,5.30
2019-02-15T14:44:03.380Z,4.50
2019-02-15T14:46:31.702Z,4.55
2019-02-15T14:49:00.101Z,4.27
2019-02-15T14:51:28.419Z,5.07
2019-02-15T14:53:56.783Z,4.12
2019-02-15T14:56:25.161Z,3.80
2019-02-15T14:58:53.504Z,3.87
2019-02-15T15:01:21.855Z,3.67
2019-02-15T15:03:50.167Z,3.20
2019-02-15T15:06:18.518Z,3.63
2019-02-15T15:08:46.936Z,3.27
2019-02-15T15:11:15.327Z,3.77
2019-02-15T15:13:43.709Z,4.73
2019-02-15T15:16:12.038Z,4.25
2019-02-15T15:18:40.363Z,3.93
2019-02-15T15:21:08.817Z,3.83
2019-02-15T15:23:37.141Z,3.63
2019-02-15T15:26:11.590Z,4.30
2019-02-15T15:28:35.790Z,4.60
2019-02-15T15:31:04.238Z,4.20
2019-02-15T15:33:32.557Z,4.23
2019-02-15T15:36:00.929Z,3.73
2019-02-15T15:38:29.232Z,3.93
2019-02-15T15:40:57.586Z,3.87
2019-02-15T15:43:25.985Z,3.87
2019-02-15T15:45:54.362Z,3.60
2019-02-15T15:48:23.078Z,4.00
2019-02-15T15:50:51.503Z,3.90
2019-02-15T15:53:19.861Z,4.17
2019-02-15T15:55:48.371Z,4.20
2019-02-15T15:58:16.865Z,4.27
2019-02-15T16:00:45.190Z,4.50
2019-02-15T16:03:13.527Z,3.63
2019-02-15T16:05:41.870Z,3.80
2019-02-15T16:08:10.218Z,4.93
2019-02-15T16:10:38.528Z,4.53
2019-02-15T16:13:07.107Z,4.10
2019-02-15T16:15:35.600Z,4.13
2019-02-15T16:18:04.208Z,4.87
2019-02-15T16:20:32.554Z,4.37
2019-02-15T16:23:01.422Z,4.27
2019-02-15T16:25:32.109Z,4.50
2019-02-15T16:28:00.519Z,4.12
2019-02-15T16:30:28.919Z,3.80
2019-02-15T16:32:57.309Z,4.50
2019-02-15T16:35:25.614Z,4.20
2019-02-15T16:37:53.994Z,5.30
2019-02-15T16:40:22.333Z,4.43
2019-02-15T16:42:50.872Z,5.13
2019-02-15T16:45:19.432Z,4.50
2019-02-15T16:47:48.031Z,3.90
2019-02-15T16:50:16.392Z,5.20
2019-02-15T16:52:44.738Z,4.27
2019-02-15T16:55:13.600Z,4.80
2019-02-15T16:57:43.512Z,4.73
2019-02-15T17:00:13.068Z,4.97
2019-02-15T17:02:41.548Z,5.70
2019-02-15T17:05:10.311Z,5.62
2019-02-15T17:07:38.665Z,6.17
2019-02-15T17:10:09.442Z,5.50
2019-02-15T17:12:38.687Z,4.63
2019-02-15T17:15:10.264Z,5.20
2019-02-15T17:17:38.612Z,5.37
2019-02-15T17:20:09.379Z,6.60
2019-02-15T17:22:37.722Z,5.23
2019-02-15T17:25:08.409Z,6.45
2019-02-15T17:27:36.733Z,5.20
2019-02-15T17:30:08.025Z,6.80
2019-02-15T17:32:36.358Z,5.60
2019-02-15T17:35:07.183Z,6.07
2019-02-15T17:37:35.523Z,5.35
2019-02-15T17:40:07.914Z,6.33
2019-02-15T17:42:36.230Z,5.70
2019-02-15T17:45:06.632Z,5.90
2019-02-15T17:47:34.969Z,5.33
2019-02-15T17:50:03.871Z,6.47
2019-02-15T17:52:32.206Z,6.47
2019-02-15T17:55:00.564Z,6.07
2019-02-15T17:57:28.950Z,6.90
2019-02-15T17:59:57.284Z,6.30
2019-02-15T18:02:25.630Z,6.47
2019-02-15T18:04:53.972Z,8.30
2019-02-15T18:07:22.331Z,6.37
2019-02-15T18:09:50.683Z,6.57
2019-02-15T18:12:19.027Z,7.60
2019-02-15T18:14:47.379Z,7.33
2019-02-15T18:17:16.370Z,8.17
2019-02-15T18:19:47.273Z,7.55
2019-02-15T18:22:15.085Z,8.10
2019-02-15T18:24:43.429Z,7.87
2019-02-15T18:27:11.957Z,8.17
2019-02-15T18:29:40.277Z,7.90
2019-02-15T18:32:08.881Z,8.83
2019-02-15T18:34:37.223Z,8.87
2019-02-15T18:37:05.669Z,8.77
2019-02-15T18:39:34.003Z,9.10
2019-02-15T18:42:02.411Z,8.60
2019-02-15T18:44:30.809Z,8.43
2019-02-15T18:46:59.175Z,9.20
2019-02-15T18:49:27.528Z,9.00
2019-02-15T18:51:56.081Z,8.60
2019-02-15T18:54:24.435Z,8.90
2019-02-15T18:56:52.821Z,10.53
2019-02-15T18:59:21.385Z,9.43
2019-02-15T19:01:49.818Z,9.05
2019-02-15T19:04:18.125Z,9.33
2019-02-15T19:06:46.474Z,9.27
2019-02-15T19:09:14.805Z,8.70
2019-02-15T19:11:43.233Z,8.83
2019-02-15T19:14:12.041Z,9.38
2019-02-15T19:16:40.332Z,10.40
2019-02-15T19:19:08.691Z,10.00
2019-02-15T19:21:37.023Z,9.70
2019-02-15T19:24:05.397Z,9.93
2019-02-15T19:26:33.700Z,9.70
2019-02-15T19:29:02.043Z,10.00
2019-02-15T19:31:30.381Z,9.67
2019-02-15T19:33:58.814Z,10.07
2019-02-15T19:36:27.144Z,11.20
2019-02-15T19:38:55.489Z,9.53
2019-02-15T19:41:24.045Z,9.60
2019-02-15T19:43:52.614Z,9.53
2019-02-15T19:46:24.133Z,10.43
2019-02-15T19:48:54.702Z,10.63
2019-02-15T19:51:24.259Z,9.90
2019-02-15T19:53:52.629Z,9.70
2019-02-15T19:56:21.091Z,8.80
2019-02-15T19:58:49.535Z,10.13
2019-02-15T20:01:17.964Z,10.13
2019-02-15T20:03:46.301Z,10.30
2019-02-15T20:06:15.011Z,9.83
2019-02-15T20:08:43.904Z,8.90
2019-02-15T20:11:12.441Z,10.20
2019-02-15T20:13:40.827Z,9.10
2019-02-15T20:16:09.936Z,8.90
2019-02-15T20:18:38.961Z,9.83
2019-02-15T20:21:09.671Z,9.03
2019-02-15T20:23:40.047Z,9.53
2019-02-15T20:26:08.390Z,8.60
2019-02-15T20:28:37.111Z,8.95
2019-02-15T20:31:05.715Z,7.93
2019-02-15T20:33:34.634Z,7.77
2019-02-15T20:36:05.939Z,8.57
2019-02-15T20:38:35.363Z,9.00
2019-02-15T20:41:04.154Z,7.50
2019-02-15T20:43:33.764Z,7.25
2019-02-15T20:46:02.146Z,7.30
2019-02-15T20:48:30.558Z,8.30
2019-02-15T20:50:59.070Z,8.10
2019-02-15T20:53:27.773Z,8.60
2019-02-15T20:55:56.121Z,7.87
2019-02-15T20:58:24.580Z,7.60
2019-02-15T21:00:53.079Z,7.15
2019-02-15T21:03:21.390Z,8.33
2019-02-15T21:05:50.064Z,8.30
2019-02-15T21:08:18.505Z,7.73
2019-02-15T21:10:54.564Z,8.73
2019-02-15T21:13:20.413Z,8.00
2019-02-15T21:15:47.632Z,8.00
2019-02-15T21:18:15.972Z,7.87
2019-02-15T21:20:44.490Z,7.73
2019-02-15T21:23:13.165Z,7.50
2019-02-15T21:25:41.517Z,7.20
2019-02-15T21:28:10.651Z,8.43
2019-02-15T21:30:39.024Z,8.13
2019-02-15T21:33:07.381Z,7.83
2019-02-15T21:35:35.683Z,8.77
2019-02-15T21:38:04.106Z,8.20
2019-02-15T21:40:32.432Z,9.07
2019-02-15T21:43:00.771Z,8.50
2019-02-15T21:45:29.113Z,8.00
2019-02-15T21:47:57.446Z,9.57
2019-02-15T21:50:25.822Z,8.60
2019-02-15T21:52:54.163Z,9.70
2019-02-15T21:55:22.494Z,9.47
2019-02-15T21:57:50.880Z,9.70
2019-02-15T22:00:20.954Z,9.90
2019-02-15T22:02:49.387Z,9.83
2019-02-15T22:05:18.157Z,9.93
2019-02-15T22:07:46.549Z,9.53
2019-02-15T22:10:15.130Z,9.33
2019-02-15T22:12:43.497Z,10.58
2019-02-15T22:15:13.924Z,10.20
2019-02-15T22:17:42.348Z,13.50
2019-02-15T22:20:13.066Z,9.58
2019-02-15T22:22:41.364Z,10.83
2019-02-15T22:25:10.179Z,10.23
2019-02-15T22:27:38.483Z,11.20
2019-02-15T22:30:12.994Z,10.57
2019-02-15T22:32:42.584Z,10.60
2019-02-15T22:35:11.896Z,10.18
2019-02-15T22:37:40.351Z,10.25
2019-02-15T22:40:17.152Z,11.40
2019-02-15T22:42:45.505Z,11.43
2019-02-15T22:45:14.293Z,11.63
2019-02-15T22:47:42.668Z,11.87
2019-02-15T22:50:11.659Z,11.47
2019-02-15T22:52:39.990Z,10.50
2019-02-15T22:55:08.522Z,13.07
2019-02-15T22:57:36.837Z,12.13
2019-02-15T23:00:12.943Z,11.00
2019-02-15T23:02:40.041Z,11.03
2019-02-15T23:05:09.995Z,11.03
2019-02-15T23:07:38.336Z,10.93
2019-02-15T23:10:08.277Z,11.33
2019-02-15T23:12:36.660Z,10.28
2019-02-15T23:15:05.922Z,10.60
2019-02-15T23:17:34.279Z,10.47
2019-02-15T23:20:02.588Z,9.60
2019-02-15T23:22:30.946Z,10.70
2019-02-15T23:24:59.277Z,11.27
2019-02-15T23:27:27.705Z,9.60
2019-02-15T23:29:56.025Z,9.83
2019-02-15T23:32:24.380Z,9.83
2019-02-15T23:34:52.689Z,9.17
2019-02-15T23:37:21.109Z,9.70
2019-02-15T23:39:49.426Z,9.00
2019-02-15T23:42:17.755Z,9.00
2019-02-15T23:44:46.083Z,8.97
2019-02-15T23:47:14.427Z,8.53
2019-02-15T23:49:42.772Z,10.10
2019-02-15T23:52:11.368Z,9.50
2019-02-15T23:54:39.710Z,9.03
2019-02-15T23:57:08.156Z,9.10
2019-02-15T23:59:36.486Z,9.63
